Time;durP1;ratioP1;P1;durP2;ratioP2;P2;SDS_P1;SDS_P2;PMS_P1;PMS_P2;Temp;Humidity;BMP_temperature;BMP_pressure;BME280_temperature;BME280_humidity;BME280_pressure;Samples;Min_cycle;Max_cycle;Signal;HPM_P1;HPM_P2
2024/04/12 00:00:58;;;;;;;34.43;19.23;;;;;;;;;;5505156;26;20310;-57
2024/04/12 00:03:24;;;;;;;33.07;18.57;;;;;;;;;;5508167;26;20274;-57
2024/04/12 00:05:49;;;;;;;30.05;17.60;;;;;;;;;;5510123;26;19998;-58
2024/04/12 00:08:16;;;;;;;38.60;19.60;;;;;;;;;;5510450;26;20009;-58
2024/04/12 00:10:41;;;;;;;33.00;18.52;;;;;;;;;;5510021;26;20017;-55
2024/04/12 00:13:07;;;;;;;35.58;18.27;;;;;;;;;;5491032;26;20006;-58
2024/04/12 00:15:33;;;;;;;33.42;19.42;;;;;;;;;;5508236;26;20002;-57
2024/04/12 00:18:00;;;;;;;34.87;20.17;;;;;;;;;;5510587;26;19994;-59
2024/04/12 00:20:28;;;;;;;32.65;18.90;;;;;;;;;;5509764;26;20006;-59
2024/04/12 00:22:55;;;;;;;35.30;20.53;;;;;;;;;;5511191;26;19994;-60
2024/04/12 00:25:24;;;;;;;34.63;18.93;;;;;;;;;;5510568;26;20017;-55
2024/04/12 00:27:50;;;;;;;31.77;18.57;;;;;;;;;;5510762;26;19998;-57
2024/04/12 00:30:37;;;;;;;31.23;18.10;;;;;;;;;;5510137;26;20267;-58
2024/04/12 00:33:08;;;;;;;32.43;18.47;;;;;;;;;;5485461;26;19991;-54
2024/04/12 00:35:34;;;;;;;33.23;18.80;;;;;;;;;;5510447;26;20227;-57
2024/04/12 00:38:03;;;;;;;33.20;17.35;;;;;;;;;;5509781;26;19998;-59
2024/04/12 00:40:32;;;;;;;36.37;18.50;;;;;;;;;;5509850;26;20009;-56
2024/04/12 00:43:11;;;;;;;30.90;18.03;;;;;;;;;;5510399;26;20005;-57
2024/04/12 00:45:42;;;;;;;27.13;15.53;;;;;;;;;;5510405;26;20275;-58
2024/04/12 00:48:08;;;;;;;27.83;14.37;;;;;;;;;;5510222;26;20009;-57
2024/04/12 00:50:36;;;;;;;25.93;15.03;;;;;;;;;;5510076;26;20224;-58
2024/04/12 00:53:06;;;;;;;20.23;11.17;;;;;;;;;;5509794;26;20048;-58
2024/04/12 00:55:33;;;;;;;17.40;10.07;;;;;;;;;;5495018;26;20243;-59
2024/04/12 00:58:01;;;;;;;15.47;8.93;;;;;;;;;;5509659;26;20235;-58
2024/04/12 01:00:35;;;;;;;13.03;7.83;;;;;;;;;;5508115;26;20271;-57
2024/04/12 01:03:05;;;;;;;13.83;7.63;;;;;;;;;;5510423;26;20251;-57
2024/04/12 01:05:32;;;;;;;13.57;8.40;;;;;;;;;;5505689;26;20272;-58
2024/04/12 01:08:00;;;;;;;13.47;7.30;;;;;;;;;;5509644;26;20267;-57
2024/04/12 01:10:26;;;;;;;11.53;7.43;;;;;;;;;;5509576;26;20242;-58
2024/04/12 01:13:12;;;;;;;11.25;7.18;;;;;;;;;;5490684;26;20235;-59
2024/04/12 01:15:38;;;;;;;9.93;6.43;;;;;;;;;;5509134;26;20013;-57
2024/04/12 01:18:04;;;;;;;8.73;5.93;;;;;;;;;;5490540;26;20236;-57
2024/04/12 01:20:35;;;;;;;14.97;7.43;;;;;;;;;;5507363;26;20006;-58
2024/04/12 01:23:00;;;;;;;10.77;6.73;;;;;;;;;;5496502;26;20239;-58
2024/04/12 01:25:27;;;;;;;9.25;6.13;;;;;;;;;;5509245;26;20301;-57
2024/04/12 01:27:55;;;;;;;9.73;6.67;;;;;;;;;;5509698;26;19998;-59
2024/04/12 01:30:22;;;;;;;12.53;6.73;;;;;;;;;;5509177;26;20235;-57
2024/04/12 01:32:50;;;;;;;10.18;6.72;;;;;;;;;;5509357;26;20227;-59
2024/04/12 01:35:16;;;;;;;9.30;5.87;;;;;;;;;;5509464;26;20130;-58
2024/04/12 01:37:43;;;;;;;9.70;5.82;;;;;;;;;;5498331;26;20236;-58
2024/04/12 01:40:12;;;;;;;9.13;5.43;;;;;;;;;;5486707;26;20056;-57
2024/04/12 01:42:42;;;;;;;9.83;5.77;;;;;;;;;;5508746;26;20267;-55
2024/04/12 01:45:14;;;;;;;6.80;4.47;;;;;;;;;;5509432;26;20291;-57
2024/04/12 01:47:42;;;;;;;8.27;4.67;;;;;;;;;;5508957;26;20279;-57
2024/04/12 01:50:07;;;;;;;7.60;4.90;;;;;;;;;;5509551;26;20239;-56
2024/04/12 01:52:49;;;;;;;7.63;5.25;;;;;;;;;;5508494;26;20024;-58
2024/04/12 01:55:18;;;;;;;8.70;5.13;;;;;;;;;;5509029;26;19994;-58
2024/04/12 01:57:46;;;;;;;7.80;4.97;;;;;;;;;;5508385;26;20263;-57
2024/04/12 02:00:16;;;;;;;8.27;5.17;;;;;;;;;;5509156;26;20302;-58
2024/04/12 02:02:42;;;;;;;7.60;4.73;;;;;;;;;;5507926;26;20714;-57
2024/04/12 02:05:09;;;;;;;7.75;5.07;;;;;;;;;;5508819;26;20264;-57
2024/04/12 02:07:39;;;;;;;8.70;4.80;;;;;;;;;;5506129;26;19998;-56
2024/04/12 02:10:11;;;;;;;8.20;5.27;;;;;;;;;;5509039;26;20243;-59
2024/04/12 02:12:42;;;;;;;9.30;5.83;;;;;;;;;;5510530;26;20223;-56
2024/04/12 02:15:19;;;;;;;9.00;5.73;;;;;;;;;;5512108;26;20013;-57
2024/04/12 02:17:57;;;;;;;9.33;5.90;;;;;;;;;;5512257;26;20298;-57
2024/04/12 02:20:23;;;;;;;11.00;6.83;;;;;;;;;;5512698;26;19994;-58
2024/04/12 02:22:49;;;;;;;11.25;7.07;;;;;;;;;;5512356;26;20325;-59
2024/04/12 02:25:17;;;;;;;12.77;7.87;;;;;;;;;;5511944;26;19998;-57
2024/04/12 02:27:46;;;;;;;13.80;8.90;;;;;;;;;;5511773;26;20372;-58
2024/04/12 02:30:13;;;;;;;13.37;8.80;;;;;;;;;;5512491;26;20052;-56
2024/04/12 02:32:39;;;;;;;20.25;10.48;;;;;;;;;;5511785;26;19998;-59
2024/04/12 02:35:04;;;;;;;19.92;11.88;;;;;;;;;;5487934;26;20009;-58
2024/04/12 02:37:30;;;;;;;23.25;12.23;;;;;;;;;;5512208;26;20018;-58
2024/04/12 02:39:56;;;;;;;22.27;12.82;;;;;;;;;;5512283;26;19998;-58
2024/04/12 02:42:22;;;;;;;24.70;14.35;;;;;;;;;;5512218;26;20002;-58
2024/04/12 02:44:47;;;;;;;24.50;14.27;;;;;;;;;;5511911;26;19994;-58
2024/04/12 02:47:14;;;;;;;26.00;13.77;;;;;;;;;;5511537;26;20039;-59
2024/04/12 02:49:40;;;;;;;23.93;13.23;;;;;;;;;;5511899;26;19998;-59
2024/04/12 02:52:07;;;;;;;24.83;13.20;;;;;;;;;;5510411;26;20227;-59
2024/04/12 02:54:35;;;;;;;21.83;12.37;;;;;;;;;;5511907;26;20039;-57
2024/04/12 02:57:02;;;;;;;21.73;11.47;;;;;;;;;;5511487;26;19994;-56
2024/04/12 02:59:28;;;;;;;20.33;11.70;;;;;;;;;;5492225;26;19995;-59
2024/04/12 03:01:54;;;;;;;19.90;9.90;;;;;;;;;;5511715;26;20009;-59
2024/04/12 03:04:20;;;;;;;16.48;9.30;;;;;;;;;;5511804;26;20040;-57
2024/04/12 03:06:46;;;;;;;16.77;8.52;;;;;;;;;;5511622;26;19998;-58
2024/04/12 03:09:11;;;;;;;14.68;8.43;;;;;;;;;;5496802;26;20002;-57
2024/04/12 03:11:37;;;;;;;15.35;8.68;;;;;;;;;;5511787;26;20002;-57
2024/04/12 03:14:04;;;;;;;13.00;7.55;;;;;;;;;;5511232;26;19998;-58
2024/04/12 03:16:30;;;;;;;12.88;7.68;;;;;;;;;;5511179;26;20010;-58
2024/04/12 03:18:57;;;;;;;15.57;8.17;;;;;;;;;;5511232;26;20009;-58
2024/04/12 03:21:30;;;;;;;11.57;6.90;;;;;;;;;;5511304;26;20223;-57
2024/04/12 03:23:57;;;;;;;12.00;7.60;;;;;;;;;;5509273;26;20006;-59
2024/04/12 03:26:23;;;;;;;15.67;7.40;;;;;;;;;;5510994;26;20259;-59
2024/04/12 03:28:55;;;;;;;11.75;7.22;;;;;;;;;;5511453;26;20006;-58
2024/04/12 03:31:25;;;;;;;12.73;7.10;;;;;;;;;;5510686;26;20014;-57
2024/04/12 03:33:50;;;;;;;14.77;7.83;;;;;;;;;;5510508;26;20339;-58
2024/04/12 03:41:43;;;;;;;16.70;9.73;;;;;;;;;;5509884;26;20223;-58
2024/04/12 03:44:10;;;;;;;16.10;10.27;;;;;;;;;;5510318;26;20263;-56
2024/04/12 03:46:40;;;;;;;;;;;;;;;;;;5503897;26;20302;-56
2024/04/12 03:49:15;;;;;;;19.50;11.03;;;;;;;;;;5492847;26;19924;-58
2024/04/12 03:51:45;;;;;;;20.20;11.33;;;;;;;;;;5490235;26;20239;-56
2024/04/12 03:54:19;;;;;;;21.00;11.63;;;;;;;;;;5510859;26;20231;-57
2024/04/12 03:56:49;;;;;;;20.77;12.23;;;;;;;;;;5509997;26;19997;-60
2024/04/12 03:59:18;;;;;;;20.70;11.37;;;;;;;;;;5504584;26;20268;-57
2024/04/12 04:01:47;;;;;;;23.57;12.83;;;;;;;;;;5493984;26;20009;-58
2024/04/12 04:04:19;;;;;;;22.70;12.20;;;;;;;;;;5510225;26;20501;-55
2024/04/12 04:06:46;;;;;;;23.90;12.33;;;;;;;;;;5508869;26;20006;-57
2024/04/12 04:09:12;;;;;;;22.37;12.50;;;;;;;;;;5509642;26;20013;-56
2024/04/12 04:11:45;;;;;;;19.73;10.83;;;;;;;;;;5510435;26;20271;-57
2024/04/12 04:14:13;;;;;;;20.73;11.23;;;;;;;;;;5510116;26;20231;-59
2024/04/12 04:16:39;;;;;;;17.90;10.37;;;;;;;;;;5498421;26;20231;-58
2024/04/12 04:19:12;;;;;;;25.40;10.98;;;;;;;;;;5488668;26;20231;-58
2024/04/12 04:21:41;;;;;;;23.57;12.17;;;;;;;;;;5510520;26;20002;-59
2024/04/12 04:24:10;;;;;;;18.50;10.63;;;;;;;;;;5510396;26;19998;-59
2024/04/12 04:26:37;;;;;;;19.53;11.20;;;;;;;;;;5510346;26;20006;-57
2024/04/12 04:29:11;;;;;;;19.83;11.40;;;;;;;;;;5498081;26;20268;-55
2024/04/12 04:31:43;;;;;;;23.93;11.33;;;;;;;;;;5504318;26;20005;-59
2024/04/12 04:34:12;;;;;;;20.53;10.90;;;;;;;;;;5510181;26;19994;-60
2024/04/12 04:36:42;;;;;;;21.87;11.70;;;;;;;;;;5508901;26;20233;-55
2024/04/12 04:39:08;;;;;;;22.47;12.30;;;;;;;;;;5508444;26;20017;-58
2024/04/12 04:41:33;;;;;;;22.17;11.63;;;;;;;;;;5510491;26;20235;-59
2024/04/12 04:43:59;;;;;;;21.90;12.13;;;;;;;;;;5510357;26;20013;-60
2024/04/12 04:46:27;;;;;;;21.27;12.52;;;;;;;;;;5508507;26;19998;-58
2024/04/12 04:48:53;;;;;;;29.10;13.33;;;;;;;;;;5510635;26;20002;-60
2024/04/12 04:51:19;;;;;;;24.92;12.05;;;;;;;;;;5508393;26;19998;-60
2024/04/12 04:53:46;;;;;;;26.73;13.70;;;;;;;;;;5510010;26;20002;-59
2024/04/12 04:56:24;;;;;;;25.40;12.70;;;;;;;;;;5509477;26;20001;-59
2024/04/12 04:58:53;;;;;;;26.37;14.10;;;;;;;;;;5502158;26;20227;-59
2024/04/12 05:01:18;;;;;;;26.50;13.63;;;;;;;;;;5509688;26;20350;-59
2024/04/12 05:03:49;;;;;;;25.87;13.37;;;;;;;;;;5509569;26;20227;-58
2024/04/12 05:06:24;;;;;;;25.40;12.77;;;;;;;;;;5509248;26;20013;-60
2024/04/12 05:08:53;;;;;;;30.27;13.60;;;;;;;;;;5509555;26;20006;-59
2024/04/12 05:11:19;;;;;;;28.93;15.50;;;;;;;;;;5509723;26;20231;-54
2024/04/12 05:13:49;;;;;;;28.00;13.38;;;;;;;;;;5509519;26;20005;-57
2024/04/12 05:16:21;;;;;;;22.13;12.33;;;;;;;;;;5509748;26;19998;-60
2024/04/12 05:18:48;;;;;;;25.67;13.00;;;;;;;;;;5499215;26;20721;-57
2024/04/12 05:21:14;;;;;;;21.60;11.90;;;;;;;;;;5508933;26;20280;-57
2024/04/12 05:23:39;;;;;;;17.65;10.40;;;;;;;;;;5509266;26;20235;-59
2024/04/12 05:26:06;;;;;;;21.50;12.30;;;;;;;;;;5509458;26;20012;-58
2024/04/12 05:28:32;;;;;;;24.87;11.43;;;;;;;;;;5509281;26;20002;-59
2024/04/12 05:30:58;;;;;;;19.95;11.43;;;;;;;;;;5507959;26;20012;-60
2024/04/12 05:33:24;;;;;;;21.80;10.90;;;;;;;;;;5509262;26;19994;-56
2024/04/12 05:35:51;;;;;;;25.93;10.93;;;;;;;;;;5499420;26;19990;-59
2024/04/12 05:38:20;;;;;;;20.20;10.95;;;;;;;;;;5491991;26;20271;-61
2024/04/12 05:40:52;;;;;;;24.53;12.10;;;;;;;;;;5508882;26;20005;-56
2024/04/12 05:43:17;;;;;;;27.40;12.33;;;;;;;;;;5509438;26;19990;-59
2024/04/12 05:45:47;;;;;;;22.45;11.18;;;;;;;;;;5508446;26;20342;-59
2024/04/12 05:48:13;;;;;;;22.83;10.73;;;;;;;;;;5512557;26;20215;-58
2024/04/12 05:50:49;;;;;;;21.42;11.57;;;;;;;;;;5512311;26;20008;-57
2024/04/12 05:53:16;;;;;;;26.27;11.15;;;;;;;;;;5512780;26;20050;-58
2024/04/12 05:55:44;;;;;;;20.38;11.65;;;;;;;;;;5512489;26;20009;-58
2024/04/12 05:58:13;;;;;;;21.97;10.90;;;;;;;;;;5512252;26;20002;-57
2024/04/12 06:00:41;;;;;;;22.63;11.07;;;;;;;;;;5490353;26;19999;-57
2024/04/12 06:03:14;;;;;;;19.37;11.53;;;;;;;;;;5512643;26;19998;-59
2024/04/12 06:05:45;;;;;;;26.33;12.50;;;;;;;;;;5512106;26;19998;-59
2024/04/12 06:08:14;;;;;;;26.87;12.53;;;;;;;;;;5500292;26;20002;-55
2024/04/12 06:10:44;;;;;;;25.93;12.30;;;;;;;;;;5512198;26;20010;-57
2024/04/12 06:13:10;;;;;;;28.67;12.77;;;;;;;;;;5512941;26;20010;-60
2024/04/12 06:15:36;;;;;;;24.65;12.93;;;;;;;;;;5511979;26;20010;-55
2024/04/12 06:18:03;;;;;;;31.00;12.67;;;;;;;;;;5512194;26;20010;-60
2024/04/12 06:20:30;;;;;;;;;;;;;;;;;;5512868;26;20006;-59
2024/04/12 06:22:58;;;;;;;29.45;12.68;;;;;;;;;;5512916;26;19923;-57
2024/04/12 06:25:25;;;;;;;32.43;13.23;;;;;;;;;;5511694;26;20027;-56
2024/04/12 06:27:52;;;;;;;29.53;13.27;;;;;;;;;;5512158;26;20009;-57
2024/04/12 06:30:24;;;;;;;25.17;11.27;;;;;;;;;;5507070;26;20004;-56
2024/04/12 06:32:50;;;;;;;27.33;12.80;;;;;;;;;;5512390;26;20043;-56
2024/04/12 06:35:20;;;;;;;25.40;11.73;;;;;;;;;;5512001;26;20004;-59
2024/04/12 06:37:47;;;;;;;21.97;11.90;;;;;;;;;;5489139;26;19999;-59
2024/04/12 06:40:15;;;;;;;28.13;11.83;;;;;;;;;;5496919;26;20026;-58
2024/04/12 06:42:42;;;;;;;24.90;11.40;;;;;;;;;;5512053;26;19994;-60
2024/04/12 06:45:15;;;;;;;24.02;12.02;;;;;;;;;;5498539;26;19998;-59
2024/04/12 06:47:43;;;;;;;22.40;10.73;;;;;;;;;;5511753;26;19994;-60
2024/04/12 06:50:08;;;;;;;23.23;10.90;;;;;;;;;;5511714;26;20013;-58
2024/04/12 06:52:35;;;;;;;22.97;10.10;;;;;;;;;;5508394;26;20002;-59
2024/04/12 06:55:01;;;;;;;21.77;10.20;;;;;;;;;;5491154;26;20005;-59
2024/04/12 06:57:27;;;;;;;18.08;10.07;;;;;;;;;;5509093;26;20026;-60
2024/04/12 06:59:53;;;;;;;20.83;10.17;;;;;;;;;;5497180;26;20014;-57
2024/04/12 07:02:25;;;;;;;18.77;9.68;;;;;;;;;;5503361;26;19994;-58
2024/04/12 07:04:53;;;;;;;24.77;10.70;;;;;;;;;;5510997;26;19998;-60
2024/04/12 07:07:22;;;;;;;21.97;10.67;;;;;;;;;;5511220;26;19994;-60
2024/04/12 07:09:51;;;;;;;20.47;10.13;;;;;;;;;;5510965;26;19997;-59
2024/04/12 07:12:19;;;;;;;21.03;10.77;;;;;;;;;;5511763;26;20047;-59
2024/04/12 07:14:49;;;;;;;26.27;10.70;;;;;;;;;;5511522;26;20002;-57
2024/04/12 07:17:21;;;;;;;21.30;10.80;;;;;;;;;;5511344;26;19994;-58
2024/04/12 07:19:49;;;;;;;20.57;10.20;;;;;;;;;;5511854;26;20110;-60
2024/04/12 07:22:18;;;;;;;21.17;11.27;;;;;;;;;;5510850;26;20094;-56
2024/04/12 07:24:47;;;;;;;23.47;9.93;;;;;;;;;;5510944;26;20002;-57
2024/04/12 07:27:16;;;;;;;22.63;10.30;;;;;;;;;;5488329;26;19994;-59
2024/04/12 07:29:52;;;;;;;22.73;10.53;;;;;;;;;;5510224;26;19998;-58
2024/04/12 07:32:22;;;;;;;22.90;10.90;;;;;;;;;;5511738;26;20031;-57
2024/04/12 07:34:51;;;;;;;19.67;9.87;;;;;;;;;;5509371;26;19991;-60
2024/04/12 07:37:31;;;;;;;22.83;10.50;;;;;;;;;;5510783;26;20008;-58
2024/04/12 07:42:46;;;;;;;27.30;11.33;;;;;;;;;;5511538;26;20001;-58
2024/04/12 07:45:37;;;;;;;26.43;11.07;;;;;;;;;;5510713;26;20013;-59
2024/04/12 07:50:48;;;;;;;25.27;11.17;;;;;;;;;;5506560;26;20456;-56
2024/04/12 07:55:42;;;;;;;26.33;10.43;;;;;;;;;;5509812;26;20203;-59
2024/04/12 07:58:10;;;;;;;26.33;11.27;;;;;;;;;;5510491;26;20047;-58
2024/04/12 08:00:36;;;;;;;;;;;;;;;;;;5510926;26;20002;-59
2024/04/12 08:03:06;;;;;;;22.50;10.23;;;;;;;;;;5510948;26;19923;-59
2024/04/12 08:05:42;;;;;;;25.60;10.97;;;;;;;;;;5510237;26;20013;-59
2024/04/12 08:08:15;;;;;;;20.83;10.30;;;;;;;;;;5510800;26;20010;-59
2024/04/12 08:10:41;;;;;;;23.13;11.07;;;;;;;;;;5505466;26;20014;-58
2024/04/12 08:13:10;;;;;;;;;;;;;;;;;;5510871;26;20006;-58
2024/04/12 08:15:40;;;;;;;22.57;10.07;;;;;;;;;;5509922;26;19931;-60
2024/04/12 08:18:06;;;;;;;21.23;10.17;;;;;;;;;;5488535;26;20009;-58
2024/04/12 08:20:39;;;;;;;23.27;11.07;;;;;;;;;;5510412;26;19998;-58
2024/04/12 08:23:05;;;;;;;20.90;9.33;;;;;;;;;;5510727;26;20005;-59
2024/04/12 08:25:33;;;;;;;;;;;;;;;;;;5510020;26;20055;-57
2024/04/12 08:27:58;;;;;;;22.07;9.80;;;;;;;;;;5509165;26;19924;-59
2024/04/12 08:30:28;;;;;;;22.85;9.63;;;;;;;;;;5510085;26;20024;-59
2024/04/12 08:32:55;;;;;;;19.57;9.70;;;;;;;;;;5509630;26;19998;-60
2024/04/12 08:35:21;;;;;;;21.83;8.77;;;;;;;;;;5510130;26;20047;-59
2024/04/12 08:37:47;;;;;;;22.55;9.27;;;;;;;;;;5510478;26;20006;-60
2024/04/12 08:40:12;;;;;;;;;;;;;;;;;;5507034;26;20038;-58
2024/04/12 08:42:39;;;;;;;23.33;9.10;;;;;;;;;;5492176;26;19931;-60
2024/04/12 08:45:13;;;;;;;;;;;;;;;;;;5510654;26;20047;-57
2024/04/12 08:47:51;;;;;;;20.67;9.17;;;;;;;;;;5509216;26;19962;-60
2024/04/12 08:50:23;;;;;;;21.43;8.57;;;;;;;;;;5509220;26;20002;-58
2024/04/12 08:52:48;;;;;;;21.20;8.67;;;;;;;;;;5498286;26;20002;-59
2024/04/12 08:55:20;;;;;;;24.83;8.60;;;;;;;;;;5510270;26;19998;-60
2024/04/12 08:57:47;;;;;;;21.13;9.17;;;;;;;;;;5508747;26;19998;-57
2024/04/12 09:00:18;;;;;;;22.73;8.17;;;;;;;;;;5510165;26;20001;-57
2024/04/12 09:02:50;;;;;;;15.90;8.00;;;;;;;;;;5509954;26;20002;-57
2024/04/12 09:05:22;;;;;;;15.27;7.83;;;;;;;;;;5510114;26;19995;-60
2024/04/12 09:07:51;;;;;;;19.90;7.93;;;;;;;;;;5506458;26;20047;-59
2024/04/12 09:10:19;;;;;;;16.27;7.37;;;;;;;;;;5509320;26;20042;-58
2024/04/12 09:12:46;;;;;;;19.53;7.33;;;;;;;;;;5509582;26;20006;-59
2024/04/12 09:15:27;;;;;;;17.13;7.53;;;;;;;;;;5508980;26;19994;-59
2024/04/12 09:18:00;;;;;;;19.53;8.03;;;;;;;;;;5509336;26;20447;-58
2024/04/12 09:20:34;;;;;;;19.27;7.43;;;;;;;;;;5508470;26;20033;-59
2024/04/12 09:23:14;;;;;;;13.40;6.63;;;;;;;;;;5472349;26;19999;-58
2024/04/12 09:25:59;;;;;;;18.70;7.03;;;;;;;;;;5486223;26;19998;-59
2024/04/12 09:28:32;;;;;;;17.27;6.73;;;;;;;;;;5502900;26;20014;-58
2024/04/12 09:33:56;;;;;;;12.73;5.90;;;;;;;;;;5483969;26;19995;-55
2024/04/12 09:36:38;;;;;;;15.80;5.77;;;;;;;;;;5508910;26;20011;-60
2024/04/12 09:39:14;;;;;;;15.97;6.73;;;;;;;;;;5509287;26;20012;-59
2024/04/12 09:41:53;;;;;;;11.70;5.40;;;;;;;;;;5507456;26;20039;-56
2024/04/12 09:44:26;;;;;;;18.17;6.23;;;;;;;;;;5506874;26;20040;-58
2024/04/12 10:39:49;;;;;;;15.60;7.03;;;;;;;;;;5510763;26;20009;-59
2024/04/12 10:42:19;;;;;;;14.40;7.25;;;;;;;;;;5511427;26;20106;-59
2024/04/12 10:44:51;;;;;;;14.85;6.03;;;;;;;;;;5511356;26;20002;-59
2024/04/12 10:47:20;;;;;;;13.68;6.35;;;;;;;;;;5511277;26;20058;-60
2024/04/12 10:49:49;;;;;;;16.70;6.18;;;;;;;;;;5486072;26;20006;-60
2024/04/12 10:52:16;;;;;;;18.35;6.93;;;;;;;;;;5511533;26;20019;-60
2024/04/12 10:54:47;;;;;;;15.20;6.80;;;;;;;;;;5511484;26;19998;-59
2024/04/12 10:57:16;;;;;;;16.48;6.90;;;;;;;;;;5510782;26;20022;-59
2024/04/12 10:59:42;;;;;;;19.95;7.07;;;;;;;;;;5488405;26;19998;-59
2024/04/12 11:02:10;;;;;;;11.55;6.22;;;;;;;;;;5508625;26;20023;-60
2024/04/12 11:05:05;;;;;;;15.32;6.80;;;;;;;;;;5489509;26;20001;-59
2024/04/12 11:07:22;;;;;;;12.27;5.50;;;;;;;;;;5511043;26;20002;-59
2024/04/12 11:09:57;;;;;;;14.43;5.57;;;;;;;;;;5511236;26;20013;-59
2024/04/12 11:12:25;;;;;;;9.88;4.50;;;;;;;;;;5508516;26;19995;-60
2024/04/12 11:15:00;;;;;;;11.27;5.25;;;;;;;;;;5511085;26;20002;-58
2024/04/12 11:31:19;;;;;;;13.73;6.15;;;;;;;;;;5509176;26;20005;-59
2024/04/12 11:33:46;;;;;;;9.23;5.03;;;;;;;;;;5489115;26;19998;-60
2024/04/12 11:36:14;;;;;;;17.88;6.03;;;;;;;;;;5509972;26;20046;-60
2024/04/12 11:38:39;;;;;;;9.88;5.32;;;;;;;;;;5509794;26;19998;-59
2024/04/12 11:41:06;;;;;;;10.88;4.85;;;;;;;;;;5510889;26;20012;-60
2024/04/12 11:43:32;;;;;;;16.15;5.78;;;;;;;;;;5510831;26;20042;-60
2024/04/12 11:46:01;;;;;;;14.45;5.68;;;;;;;;;;5510166;26;20002;-60
2024/04/12 11:48:31;;;;;;;12.02;4.85;;;;;;;;;;5509770;26;19994;-59
2024/04/12 11:50:59;;;;;;;10.77;5.05;;;;;;;;;;5510678;26;19994;-60
2024/04/12 11:53:25;;;;;;;13.45;5.40;;;;;;;;;;5498662;26;20095;-59
2024/04/12 11:55:50;;;;;;;;;;;;;;;;;;5511046;26;20035;-59
2024/04/12 11:58:16;;;;;;;10.38;5.03;;;;;;;;;;5478984;26;19932;-60
2024/04/12 12:00:41;;;;;;;6.85;3.40;;;;;;;;;;5510280;26;20013;-59
2024/04/12 12:03:15;;;;;;;9.30;4.43;;;;;;;;;;5504907;26;19998;-59
2024/04/12 12:05:42;;;;;;;13.23;4.53;;;;;;;;;;5500325;26;20009;-58
2024/04/12 12:08:13;;;;;;;10.05;4.63;;;;;;;;;;5493775;26;20003;-59
2024/04/12 12:10:40;;;;;;;11.30;4.72;;;;;;;;;;5482750;26;19994;-59
2024/04/12 12:13:05;;;;;;;10.60;4.95;;;;;;;;;;5509169;26;19998;-59
2024/04/12 12:15:31;;;;;;;11.07;3.90;;;;;;;;;;5504797;26;19993;-60
2024/04/12 12:17:58;;;;;;;8.63;3.17;;;;;;;;;;5510000;26;20001;-62
2024/04/12 12:20:23;;;;;;;11.55;4.07;;;;;;;;;;5508963;26;19990;-60
2024/04/12 12:22:49;;;;;;;11.65;4.78;;;;;;;;;;5509795;26;20001;-60
2024/04/12 12:25:16;;;;;;;12.60;4.68;;;;;;;;;;5510274;26;20002;-60
2024/04/12 12:27:43;;;;;;;8.30;3.90;;;;;;;;;;5510131;26;20022;-59
2024/04/12 12:30:14;;;;;;;7.75;3.08;;;;;;;;;;5510447;26;20022;-59
2024/04/12 12:32:44;;;;;;;6.40;3.08;;;;;;;;;;5510189;26;20051;-59
2024/04/12 12:35:18;;;;;;;7.05;3.10;;;;;;;;;;5510294;26;20050;-59
2024/04/12 12:37:44;;;;;;;6.60;2.78;;;;;;;;;;5509726;26;20002;-60
2024/04/12 12:40:13;;;;;;;5.78;2.60;;;;;;;;;;5509784;26;20039;-60
2024/04/12 12:42:39;;;;;;;7.70;2.50;;;;;;;;;;5509831;26;20012;-60
2024/04/12 12:45:04;;;;;;;4.55;2.30;;;;;;;;;;5510521;26;20002;-60
2024/04/12 12:47:31;;;;;;;4.45;1.90;;;;;;;;;;5510340;26;20002;-60
2024/04/12 12:50:01;;;;;;;5.85;1.83;;;;;;;;;;5510059;26;20038;-60
2024/04/12 12:52:28;;;;;;;5.63;2.00;;;;;;;;;;5509727;26;19998;-60
2024/04/12 12:54:56;;;;;;;3.00;1.70;;;;;;;;;;5510293;26;19998;-60
2024/04/12 12:57:25;;;;;;;6.25;1.70;;;;;;;;;;5509850;26;20012;-60
2024/04/12 12:59:54;;;;;;;6.07;1.20;;;;;;;;;;5509599;26;20005;-60
2024/04/12 13:02:19;;;;;;;3.08;1.30;;;;;;;;;;5486531;26;20009;-60
2024/04/12 13:04:48;;;;;;;3.95;1.35;;;;;;;;;;5509772;26;19994;-60
2024/04/12 13:07:17;;;;;;;6.63;1.88;;;;;;;;;;5509463;26;20054;-60
2024/04/12 13:09:42;;;;;;;3.53;1.60;;;;;;;;;;5508911;26;20195;-60
2024/04/12 13:12:11;;;;;;;5.43;1.73;;;;;;;;;;5508905;26;20017;-59
2024/04/12 13:14:37;;;;;;;4.55;1.70;;;;;;;;;;5500334;26;20013;-60
2024/04/12 13:17:11;;;;;;;6.68;2.17;;;;;;;;;;5509599;26;20006;-60
2024/04/12 13:19:38;;;;;;;5.10;1.90;;;;;;;;;;5509401;26;20030;-61
2024/04/12 13:22:04;;;;;;;5.50;2.15;;;;;;;;;;5508190;26;20016;-60
2024/04/12 13:24:30;;;;;;;8.18;3.63;;;;;;;;;;5508737;26;19998;-60
2024/04/12 13:26:59;;;;;;;9.55;3.40;;;;;;;;;;5509497;26;20006;-60
2024/04/12 13:29:29;;;;;;;7.30;3.97;;;;;;;;;;5509093;26;19998;-60
2024/04/12 13:31:57;;;;;;;7.68;3.60;;;;;;;;;;5509514;26;20002;-59
2024/04/12 13:34:23;;;;;;;9.63;3.47;;;;;;;;;;5509260;26;19998;-60
2024/04/12 13:36:52;;;;;;;6.65;3.35;;;;;;;;;;5508927;26;19998;-60
2024/04/12 13:39:21;;;;;;;11.60;3.88;;;;;;;;;;5509371;26;20029;-60
2024/04/12 13:41:47;;;;;;;8.85;3.75;;;;;;;;;;5508708;26;19998;-60
2024/04/12 13:44:25;;;;;;;11.40;4.15;;;;;;;;;;5508575;26;20008;-60
2024/04/12 13:52:23;;;;;;;9.50;3.67;;;;;;;;;;5509316;26;20013;-60
2024/04/12 13:54:50;;;;;;;7.47;3.83;;;;;;;;;;5507548;26;20006;-60
2024/04/12 13:57:17;;;;;;;12.13;3.97;;;;;;;;;;5508655;26;20002;-60
2024/04/12 13:59:44;;;;;;;14.10;5.30;;;;;;;;;;5508513;26;20075;-61
2024/04/12 14:02:10;;;;;;;9.30;3.50;;;;;;;;;;5504144;26;20002;-61
2024/04/12 14:04:38;;;;;;;19.05;9.20;;;;;;;;;;5492881;26;20034;-61
2024/04/12 14:07:04;;;;;;;8.88;3.88;;;;;;;;;;5508830;26;19999;-60
2024/04/12 14:09:30;;;;;;;11.60;5.35;;;;;;;;;;5512090;26;20014;-60
2024/04/12 14:11:56;;;;;;;12.73;4.70;;;;;;;;;;5512322;26;20064;-60
2024/04/12 14:14:23;;;;;;;7.72;3.33;;;;;;;;;;5512521;26;19995;-61
2024/04/12 14:16:48;;;;;;;9.38;3.85;;;;;;;;;;5511147;26;20450;-61
2024/04/12 14:19:20;;;;;;;6.13;3.13;;;;;;;;;;5511226;26;20010;-61
2024/04/12 14:21:47;;;;;;;10.45;4.75;;;;;;;;;;5512060;26;20017;-60
2024/04/12 14:24:56;;;;;;;9.98;2.80;;;;;;;;;;5512215;26;20043;-61
2024/04/12 14:26:59;;;;;;;12.10;4.10;;;;;;;;;;5511723;26;20005;-61
2024/04/12 14:29:26;;;;;;;7.85;4.00;;;;;;;;;;5511787;26;19998;-60
2024/04/12 14:31:55;;;;;;;9.88;3.40;;;;;;;;;;5501579;26;19995;-61
2024/04/12 14:34:24;;;;;;;7.82;2.42;;;;;;;;;;5500316;26;19990;-61
2024/04/12 14:36:51;;;;;;;8.95;3.50;;;;;;;;;;5511655;26;19998;-60
2024/04/12 14:39:18;;;;;;;10.52;3.17;;;;;;;;;;5495982;26;20002;-60
2024/04/12 14:41:44;;;;;;;7.40;3.50;;;;;;;;;;5511927;26;20005;-60
2024/04/12 14:44:09;;;;;;;7.47;2.60;;;;;;;;;;5511725;26;20010;-60
2024/04/12 14:46:36;;;;;;;7.65;2.60;;;;;;;;;;5511757;26;20018;-62
2024/04/12 14:49:01;;;;;;;4.40;1.75;;;;;;;;;;5510108;26;20013;-61
2024/04/12 14:51:28;;;;;;;4.40;1.67;;;;;;;;;;5511754;26;19999;-62
2024/04/12 14:53:53;;;;;;;4.95;1.40;;;;;;;;;;5511650;26;20016;-60
2024/04/12 14:56:19;;;;;;;3.83;1.73;;;;;;;;;;5511730;26;19998;-60
2024/04/12 14:58:47;;;;;;;8.48;2.90;;;;;;;;;;5511518;26;20002;-61
2024/04/12 15:01:12;;;;;;;10.38;3.17;;;;;;;;;;5510881;26;20014;-62
2024/04/12 15:50:00;;;;;;;;;;;;;;;;;;5511340;26;20015;-61
2024/04/12 15:52:29;;;;;;;8.50;2.27;;;;;;;;;;5489394;26;19931;-61
2024/04/12 15:55:08;;;;;;;5.77;2.10;;;;;;;;;;5502537;26;20002;-61
2024/04/12 16:11:15;;;;;;;7.73;2.33;;;;;;;;;;5497347;26;20013;-61
2024/04/12 16:13:40;;;;;;;;;;;;;;;;;;5509452;26;20026;-61
2024/04/12 16:16:05;;;;;;;5.82;2.64;;;;;;;;;;5509271;26;19931;-61
2024/04/12 16:18:31;;;;;;;;;;;;;;;;;;5507365;26;20009;-61
2024/04/12 16:20:57;;;;;;;9.40;3.53;;;;;;;;;;5491420;26;19924;-61
2024/04/12 16:23:23;;;;;;;11.80;4.57;;;;;;;;;;5510902;26;19998;-61
2024/04/12 16:25:48;;;;;;;7.70;2.63;;;;;;;;;;5509714;26;19994;-61
2024/04/12 16:28:17;;;;;;;5.30;2.77;;;;;;;;;;5510717;26;20005;-60
2024/04/12 16:30:43;;;;;;;6.60;2.50;;;;;;;;;;5509758;26;20214;-61
2024/04/12 16:33:10;;;;;;;10.20;3.90;;;;;;;;;;5506736;26;20012;-60
2024/04/12 16:35:36;;;;;;;7.20;2.03;;;;;;;;;;5502108;26;20006;-62
2024/04/12 16:38:05;;;;;;;6.83;2.10;;;;;;;;;;5509735;26;20017;-61
2024/04/12 16:40:34;;;;;;;6.13;2.50;;;;;;;;;;5509725;26;20010;-61
2024/04/12 16:43:00;;;;;;;4.87;2.30;;;;;;;;;;5510428;26;20002;-60
2024/04/12 16:45:26;;;;;;;8.07;2.53;;;;;;;;;;5509102;26;20002;-61
2024/04/12 16:47:55;;;;;;;6.50;2.30;;;;;;;;;;5510017;26;20009;-61
2024/04/12 16:50:23;;;;;;;6.63;2.33;;;;;;;;;;5509747;26;20038;-61
2024/04/12 16:52:49;;;;;;;9.27;3.97;;;;;;;;;;5508641;26;20013;-61
2024/04/12 16:55:16;;;;;;;6.20;2.93;;;;;;;;;;5508314;26;20018;-60
2024/04/12 16:57:43;;;;;;;7.23;2.70;;;;;;;;;;5508878;26;20002;-60
2024/04/12 17:00:09;;;;;;;8.40;2.43;;;;;;;;;;5509808;26;20002;-61
2024/04/12 17:02:35;;;;;;;6.93;2.17;;;;;;;;;;5505184;26;20013;-60
2024/04/12 17:05:00;;;;;;;5.35;2.30;;;;;;;;;;5493259;26;19995;-60
2024/04/12 17:07:26;;;;;;;9.23;2.42;;;;;;;;;;5505301;26;19998;-60
2024/04/12 17:09:52;;;;;;;9.48;2.40;;;;;;;;;;5509896;26;19994;-61